sensor_id;sensor_type;location;lat;lon;timestamp;temperature;humidity
71627;DHT22;59475;52.464;13.590;2022-10-13T00:00:31;4.27;90.21
71627;DHT22;59475;52.464;13.590;2022-10-13T00:03:02;4.28;89.92
71627;DHT22;59475;52.464;13.590;2022-10-13T00:05:29;4.24;89.96
71627;DHT22;59475;52.464;13.590;2022-10-13T00:07:54;4.21;89.96
71627;DHT22;59475;52.464;13.590;2022-10-13T00:10:20;4.24;89.93
71627;DHT22;59475;52.464;13.590;2022-10-13T00:12:45;4.22;89.73
71627;DHT22;59475;52.464;13.590;2022-10-13T00:15:11;4.17;89.90
71627;DHT22;59475;52.464;13.590;2022-10-13T00:17:37;4.16;90.05
71627;DHT22;59475;52.464;13.590;2022-10-13T00:20:04;4.14;90.03
71627;DHT22;59475;52.464;13.590;2022-10-13T00:22:29;4.20;89.90
71627;DHT22;59475;52.464;13.590;2022-10-13T00:24:55;4.22;89.66
71627;DHT22;59475;52.464;13.590;2022-10-13T00:27:20;4.24;89.33
71627;DHT22;59475;52.464;13.590;2022-10-13T00:29:46;4.18;89.49
71627;DHT22;59475;52.464;13.590;2022-10-13T00:32:11;4.11;89.44
71627;DHT22;59475;52.464;13.590;2022-10-13T00:34:37;4.09;89.77
71627;DHT22;59475;52.464;13.590;2022-10-13T00:37:02;4.06;89.93
71627;DHT22;59475;52.464;13.590;2022-10-13T00:39:28;4.00;90.18
71627;DHT22;59475;52.464;13.590;2022-10-13T00:41:53;3.97;90.14
71627;DHT22;59475;52.464;13.590;2022-10-13T00:47:23;3.97;89.89
71627;DHT22;59475;52.464;13.590;2022-10-13T00:49:49;3.93;90.17
71627;DHT22;59475;52.464;13.590;2022-10-13T00:52:16;3.90;90.26
71627;DHT22;59475;52.464;13.590;2022-10-13T00:54:42;3.85;90.43
71627;DHT22;59475;52.464;13.590;2022-10-13T00:57:08;3.81;90.51
71627;DHT22;59475;52.464;13.590;2022-10-13T00:59:34;3.85;90.36
71627;DHT22;59475;52.464;13.590;2022-10-13T01:02:01;3.81;90.36
71627;DHT22;59475;52.464;13.590;2022-10-13T01:04:30;3.78;90.41
71627;DHT22;59475;52.464;13.590;2022-10-13T01:06:57;3.75;90.48
71627;DHT22;59475;52.464;13.590;2022-10-13T01:09:23;3.76;90.37
71627;DHT22;59475;52.464;13.590;2022-10-13T01:11:58;3.79;90.25
71627;DHT22;59475;52.464;13.590;2022-10-13T01:14:33;3.82;89.89
71627;DHT22;59475;52.464;13.590;2022-10-13T01:20:14;3.73;90.04
71627;DHT22;59475;52.464;13.590;2022-10-13T01:23:16;3.66;90.33
71627;DHT22;59475;52.464;13.590;2022-10-13T01:31:18;3.66;90.45
71627;DHT22;59475;52.464;13.590;2022-10-13T01:33:56;3.69;90.48
71627;DHT22;59475;52.464;13.590;2022-10-13T01:36:43;3.66;90.37
71627;DHT22;59475;52.464;13.590;2022-10-13T01:42:07;3.55;90.45
71627;DHT22;59475;52.464;13.590;2022-10-13T01:44:40;3.51;90.52
71627;DHT22;59475;52.464;13.590;2022-10-13T01:47:09;3.51;90.58
71627;DHT22;59475;52.464;13.590;2022-10-13T01:49:36;3.56;90.41
71627;DHT22;59475;52.464;13.590;2022-10-13T01:52:09;3.58;90.23
71627;DHT22;59475;52.464;13.590;2022-10-13T01:54:34;3.58;90.06
71627;DHT22;59475;52.464;13.590;2022-10-13T01:57:00;3.55;90.05
71627;DHT22;59475;52.464;13.590;2022-10-13T01:59:28;3.48;90.42
71627;DHT22;59475;52.464;13.590;2022-10-13T02:02:14;3.42;90.64
71627;DHT22;59475;52.464;13.590;2022-10-13T02:07:43;3.48;91.05
71627;DHT22;59475;52.464;13.590;2022-10-13T02:10:19;3.46;91.23
71627;DHT22;59475;52.464;13.590;2022-10-13T02:12:52;3.51;91.55
71627;DHT22;59475;52.464;13.590;2022-10-13T02:15:24;3.56;91.89
71627;DHT22;59475;52.464;13.590;2022-10-13T02:17:53;3.69;91.98
71627;DHT22;59475;52.464;13.590;2022-10-13T02:20:19;3.71;92.36
71627;DHT22;59475;52.464;13.590;2022-10-13T02:22:50;3.81;92.55
71627;DHT22;59475;52.464;13.590;2022-10-13T02:25:17;3.92;92.56
71627;DHT22;59475;52.464;13.590;2022-10-13T02:27:42;4.02;92.51
71627;DHT22;59475;52.464;13.590;2022-10-13T02:30:08;4.13;92.38
71627;DHT22;59475;52.464;13.590;2022-10-13T02:32:33;4.27;92.10
71627;DHT22;59475;52.464;13.590;2022-10-13T02:34:59;4.40;91.77
71627;DHT22;59475;52.464;13.590;2022-10-13T02:37:24;4.40;91.60
71627;DHT22;59475;52.464;13.590;2022-10-13T02:39:50;4.37;91.56
71627;DHT22;59475;52.464;13.590;2022-10-13T02:42:16;4.38;91.58
71627;DHT22;59475;52.464;13.590;2022-10-13T02:44:41;4.37;91.64
71627;DHT22;59475;52.464;13.590;2022-10-13T02:47:07;4.33;91.74
71627;DHT22;59475;52.464;13.590;2022-10-13T02:49:33;4.34;91.67
71627;DHT22;59475;52.464;13.590;2022-10-13T02:51:58;4.33;91.51
71627;DHT22;59475;52.464;13.590;2022-10-13T02:54:23;4.30;91.46
71627;DHT22;59475;52.464;13.590;2022-10-13T02:56:48;4.25;91.59
71627;DHT22;59475;52.464;13.590;2022-10-13T02:59:14;4.16;92.08
71627;DHT22;59475;52.464;13.590;2022-10-13T03:01:39;4.10;92.16
71627;DHT22;59475;52.464;13.590;2022-10-13T03:04:09;4.04;92.27
71627;DHT22;59475;52.464;13.590;2022-10-13T03:06:35;4.00;92.29
71627;DHT22;59475;52.464;13.590;2022-10-13T03:09:01;3.93;92.51
71627;DHT22;59475;52.464;13.590;2022-10-13T03:11:27;3.92;92.42
71627;DHT22;59475;52.464;13.590;2022-10-13T03:13:52;3.99;92.27
71627;DHT22;59475;52.464;13.590;2022-10-13T03:16:17;3.99;91.88
71627;DHT22;59475;52.464;13.590;2022-10-13T03:18:43;3.94;91.84
71627;DHT22;59475;52.464;13.590;2022-10-13T03:21:08;3.90;92.04
71627;DHT22;59475;52.464;13.590;2022-10-13T03:23:34;3.87;92.09
71627;DHT22;59475;52.464;13.590;2022-10-13T03:25:59;3.83;92.46
71627;DHT22;59475;52.464;13.590;2022-10-13T03:28:24;3.81;92.22
71627;DHT22;59475;52.464;13.590;2022-10-13T03:30:58;3.79;92.10
71627;DHT22;59475;52.464;13.590;2022-10-13T03:33:23;3.75;92.01
71627;DHT22;59475;52.464;13.590;2022-10-13T03:35:48;3.64;92.38
71627;DHT22;59475;52.464;13.590;2022-10-13T03:38:14;3.59;92.41
71627;DHT22;59475;52.464;13.590;2022-10-13T03:40:39;3.56;92.48
71627;DHT22;59475;52.464;13.590;2022-10-13T03:43:04;3.55;92.31
71627;DHT22;59475;52.464;13.590;2022-10-13T03:45:30;3.52;92.33
71627;DHT22;59475;52.464;13.590;2022-10-13T03:47:55;3.48;92.30
71627;DHT22;59475;52.464;13.590;2022-10-13T03:50:20;3.48;92.23
71627;DHT22;59475;52.464;13.590;2022-10-13T03:52:46;3.46;92.05
71627;DHT22;59475;52.464;13.590;2022-10-13T03:55:11;3.51;91.85
71627;DHT22;59475;52.464;13.590;2022-10-13T03:57:36;3.48;91.83
71627;DHT22;59475;52.464;13.590;2022-10-13T04:00:02;3.45;92.03
71627;DHT22;59475;52.464;13.590;2022-10-13T04:02:28;3.41;92.05
71627;DHT22;59475;52.464;13.590;2022-10-13T04:04:53;3.42;92.08
71627;DHT22;59475;52.464;13.590;2022-10-13T04:07:18;3.38;91.74
71627;DHT22;59475;52.464;13.590;2022-10-13T04:09:43;3.37;91.90
71627;DHT22;59475;52.464;13.590;2022-10-13T04:12:09;3.39;91.87
71627;DHT22;59475;52.464;13.590;2022-10-13T04:14:34;3.41;91.85
71627;DHT22;59475;52.464;13.590;2022-10-13T04:16:59;3.42;91.76
71627;DHT22;59475;52.464;13.590;2022-10-13T04:19:25;3.42;91.77
71627;DHT22;59475;52.464;13.590;2022-10-13T04:21:50;3.44;91.76
71627;DHT22;59475;52.464;13.590;2022-10-13T04:24:16;3.44;92.17
71627;DHT22;59475;52.464;13.590;2022-10-13T04:26:43;3.44;92.32
71627;DHT22;59475;52.464;13.590;2022-10-13T04:29:11;3.46;92.52
71627;DHT22;59475;52.464;13.590;2022-10-13T04:31:37;3.56;92.57
71627;DHT22;59475;52.464;13.590;2022-10-13T04:34:03;3.58;92.56
71627;DHT22;59475;52.464;13.590;2022-10-13T04:36:29;3.55;92.66
71627;DHT22;59475;52.464;13.590;2022-10-13T04:38:54;3.56;92.79
71627;DHT22;59475;52.464;13.590;2022-10-13T04:41:21;3.64;92.88
71627;DHT22;59475;52.464;13.590;2022-10-13T04:43:51;3.72;92.98
71627;DHT22;59475;52.464;13.590;2022-10-13T04:46:20;3.82;92.78
71627;DHT22;59475;52.464;13.590;2022-10-13T04:48:46;3.87;92.71
71627;DHT22;59475;52.464;13.590;2022-10-13T04:51:14;3.82;92.74
71627;DHT22;59475;52.464;13.590;2022-10-13T04:53:40;3.81;92.99
71627;DHT22;59475;52.464;13.590;2022-10-13T04:56:08;3.79;93.04
71627;DHT22;59475;52.464;13.590;2022-10-13T04:58:35;3.83;93.04
71627;DHT22;59475;52.464;13.590;2022-10-13T05:01:03;3.87;93.14
71627;DHT22;59475;52.464;13.590;2022-10-13T05:03:29;3.93;93.03
71627;DHT22;59475;52.464;13.590;2022-10-13T05:05:55;3.99;93.01
71627;DHT22;59475;52.464;13.590;2022-10-13T05:08:20;4.02;92.96
71627;DHT22;59475;52.464;13.590;2022-10-13T05:11:00;4.06;92.82
71627;DHT22;59475;52.464;13.590;2022-10-13T05:13:26;4.09;92.89
71627;DHT22;59475;52.464;13.590;2022-10-13T05:15:52;4.11;93.08
71627;DHT22;59475;52.464;13.590;2022-10-13T05:18:18;4.14;93.16
71627;DHT22;59475;52.464;13.590;2022-10-13T05:20:43;4.24;93.06
71627;DHT22;59475;52.464;13.590;2022-10-13T05:23:08;4.34;92.91
71627;DHT22;59475;52.464;13.590;2022-10-13T05:25:35;4.38;92.76
71627;DHT22;59475;52.464;13.590;2022-10-13T05:28:02;4.41;92.80
71627;DHT22;59475;52.464;13.590;2022-10-13T05:30:27;4.44;93.01
71627;DHT22;59475;52.464;13.590;2022-10-13T05:32:53;4.45;93.06
71627;DHT22;59475;52.464;13.590;2022-10-13T05:35:18;4.47;93.16
71627;DHT22;59475;52.464;13.590;2022-10-13T05:37:43;4.51;93.33
71627;DHT22;59475;52.464;13.590;2022-10-13T05:40:09;4.55;93.35
71627;DHT22;59475;52.464;13.590;2022-10-13T05:42:35;4.61;93.46
71627;DHT22;59475;52.464;13.590;2022-10-13T05:45:00;4.61;93.69
71627;DHT22;59475;52.464;13.590;2022-10-13T05:47:26;4.64;93.74
71627;DHT22;59475;52.464;13.590;2022-10-13T05:49:53;4.69;93.96
71627;DHT22;59475;52.464;13.590;2022-10-13T05:52:19;4.73;93.88
71627;DHT22;59475;52.464;13.590;2022-10-13T05:54:47;4.86;94.32
71627;DHT22;59475;52.464;13.590;2022-10-13T05:57:17;4.99;94.17
71627;DHT22;59475;52.464;13.590;2022-10-13T05:59:48;5.04;93.95
71627;DHT22;59475;52.464;13.590;2022-10-13T06:02:16;5.13;93.83
71627;DHT22;59475;52.464;13.590;2022-10-13T06:04:45;5.28;94.01
71627;DHT22;59475;52.464;13.590;2022-10-13T06:07:11;5.38;94.02
71627;DHT22;59475;52.464;13.590;2022-10-13T06:09:37;5.54;93.97
71627;DHT22;59475;52.464;13.590;2022-10-13T06:12:05;5.59;93.86
71627;DHT22;59475;52.464;13.590;2022-10-13T06:14:30;5.65;93.85
71627;DHT22;59475;52.464;13.590;2022-10-13T06:16:55;5.62;94.14
71627;DHT22;59475;52.464;13.590;2022-10-13T06:19:21;5.68;94.18
71627;DHT22;59475;52.464;13.590;2022-10-13T06:21:46;5.72;94.27
71627;DHT22;59475;52.464;13.590;2022-10-13T06:24:11;5.83;94.37
71627;DHT22;59475;52.464;13.590;2022-10-13T06:26:36;5.95;94.35
71627;DHT22;59475;52.464;13.590;2022-10-13T06:29:02;5.99;94.23
71627;DHT22;59475;52.464;13.590;2022-10-13T06:31:27;6.02;93.93
71627;DHT22;59475;52.464;13.590;2022-10-13T06:33:53;6.09;93.97
71627;DHT22;59475;52.464;13.590;2022-10-13T06:36:18;6.17;93.84
71627;DHT22;59475;52.464;13.590;2022-10-13T06:38:43;6.21;93.56
71627;DHT22;59475;52.464;13.590;2022-10-13T06:41:09;6.26;93.47
71627;DHT22;59475;52.464;13.590;2022-10-13T06:43:35;6.36;93.76
71627;DHT22;59475;52.464;13.590;2022-10-13T06:46:00;6.42;94.08
71627;DHT22;59475;52.464;13.590;2022-10-13T06:48:28;6.56;94.37
71627;DHT22;59475;52.464;13.590;2022-10-13T06:50:54;6.72;94.05
71627;DHT22;59475;52.464;13.590;2022-10-13T06:53:19;6.71;93.72
71627;DHT22;59475;52.464;13.590;2022-10-13T06:55:44;6.74;93.81
71627;DHT22;59475;52.464;13.590;2022-10-13T06:58:10;6.78;93.91
71627;DHT22;59475;52.464;13.590;2022-10-13T07:00:36;6.92;94.08
71627;DHT22;59475;52.464;13.590;2022-10-13T07:03:01;7.02;94.04
71627;DHT22;59475;52.464;13.590;2022-10-13T07:05:27;7.09;94.21
71627;DHT22;59475;52.464;13.590;2022-10-13T07:07:52;7.20;94.20
71627;DHT22;59475;52.464;13.590;2022-10-13T07:10:20;7.32;94.09
71627;DHT22;59475;52.464;13.590;2022-10-13T07:12:45;7.46;94.09
71627;DHT22;59475;52.464;13.590;2022-10-13T07:15:11;7.65;94.24
71627;DHT22;59475;52.464;13.590;2022-10-13T07:17:36;7.81;94.83
71627;DHT22;59475;52.464;13.590;2022-10-13T07:20:02;7.99;94.62
71627;DHT22;59475;52.464;13.590;2022-10-13T07:22:29;8.23;95.07
71627;DHT22;59475;52.464;13.590;2022-10-13T07:24:55;8.40;94.51
71627;DHT22;59475;52.464;13.590;2022-10-13T07:27:20;8.55;93.20
71627;DHT22;59475;52.464;13.590;2022-10-13T07:29:46;8.71;92.48
71627;DHT22;59475;52.464;13.590;2022-10-13T07:32:11;8.91;93.01
71627;DHT22;59475;52.464;13.590;2022-10-13T07:34:36;9.12;93.27
71627;DHT22;59475;52.464;13.590;2022-10-13T07:37:02;9.40;92.59
71627;DHT22;59475;52.464;13.590;2022-10-13T07:39:27;9.68;91.43
71627;DHT22;59475;52.464;13.590;2022-10-13T07:41:52;10.01;91.41
71627;DHT22;59475;52.464;13.590;2022-10-13T07:44:18;10.29;89.79
71627;DHT22;59475;52.464;13.590;2022-10-13T07:46:43;10.50;88.03
71627;DHT22;59475;52.464;13.590;2022-10-13T07:49:08;10.82;87.22
71627;DHT22;59475;52.464;13.590;2022-10-13T07:51:34;11.08;86.59
71627;DHT22;59475;52.464;13.590;2022-10-13T07:53:59;11.43;88.34
71627;DHT22;59475;52.464;13.590;2022-10-13T07:56:24;11.56;84.30
71627;DHT22;59475;52.464;13.590;2022-10-13T07:58:50;11.51;82.70
71627;DHT22;59475;52.464;13.590;2022-10-13T08:01:15;11.42;81.72
71627;DHT22;59475;52.464;13.590;2022-10-13T08:03:42;11.34;82.98
71627;DHT22;59475;52.464;13.590;2022-10-13T08:06:07;11.44;82.29
71627;DHT22;59475;52.464;13.590;2022-10-13T08:08:33;11.60;83.90
71627;DHT22;59475;52.464;13.590;2022-10-13T08:11:07;11.78;82.01
71627;DHT22;59475;52.464;13.590;2022-10-13T08:13:34;12.08;82.19
71627;DHT22;59475;52.464;13.590;2022-10-13T08:16:00;12.47;80.61
71627;DHT22;59475;52.464;13.590;2022-10-13T08:18:26;12.88;80.87
71627;DHT22;59475;52.464;13.590;2022-10-13T08:20:52;13.18;77.49
71627;DHT22;59475;52.464;13.590;2022-10-13T08:23:17;13.52;78.18
71627;DHT22;59475;52.464;13.590;2022-10-13T08:25:43;13.83;75.67
71627;DHT22;59475;52.464;13.590;2022-10-13T08:28:23;14.12;73.70
71627;DHT22;59475;52.464;13.590;2022-10-13T08:30:50;14.43;71.88
71627;DHT22;59475;52.464;13.590;2022-10-13T08:33:18;14.79;72.01
71627;DHT22;59475;52.464;13.590;2022-10-13T08:35:43;15.18;70.46
71627;DHT22;59475;52.464;13.590;2022-10-13T08:38:08;15.59;68.80
71627;DHT22;59475;52.464;13.590;2022-10-13T08:40:34;15.49;67.29
71627;DHT22;59475;52.464;13.590;2022-10-13T08:42:59;15.55;66.84
71627;DHT22;59475;52.464;13.590;2022-10-13T08:45:29;15.51;67.25
71627;DHT22;59475;52.464;13.590;2022-10-13T08:47:59;15.59;67.51
71627;DHT22;59475;52.464;13.590;2022-10-13T08:50:30;15.36;67.29
71627;DHT22;59475;52.464;13.590;2022-10-13T08:53:12;15.41;68.67
71627;DHT22;59475;52.464;13.590;2022-10-13T08:55:47;15.74;67.38
71627;DHT22;59475;52.464;13.590;2022-10-13T08:58:20;15.34;67.54
71627;DHT22;59475;52.464;13.590;2022-10-13T09:00:46;15.17;68.16
71627;DHT22;59475;52.464;13.590;2022-10-13T09:03:23;15.07;68.55
71627;DHT22;59475;52.464;13.590;2022-10-13T09:08:29;15.39;68.55
71627;DHT22;59475;52.464;13.590;2022-10-13T09:10:57;15.48;67.80
71627;DHT22;59475;52.464;13.590;2022-10-13T09:13:24;15.44;68.24
71627;DHT22;59475;52.464;13.590;2022-10-13T09:15:49;15.17;69.64
71627;DHT22;59475;52.464;13.590;2022-10-13T09:18:15;15.12;69.72
71627;DHT22;59475;52.464;13.590;2022-10-13T09:20:40;15.06;70.15
71627;DHT22;59475;52.464;13.590;2022-10-13T09:23:21;15.01;70.76
71627;DHT22;59475;52.464;13.590;2022-10-13T09:25:50;14.90;71.05
71627;DHT22;59475;52.464;13.590;2022-10-13T09:28:26;14.81;71.79
71627;DHT22;59475;52.464;13.590;2022-10-13T09:31:05;14.96;71.30
71627;DHT22;59475;52.464;13.590;2022-10-13T09:33:36;15.04;71.26
71627;DHT22;59475;52.464;13.590;2022-10-13T09:38:27;15.12;71.60
71627;DHT22;59475;52.464;13.590;2022-10-13T09:40:59;15.04;71.70
71627;DHT22;59475;52.464;13.590;2022-10-13T09:46:35;15.06;71.94
71627;DHT22;59475;52.464;13.590;2022-10-13T09:49:37;15.04;72.12
71627;DHT22;59475;52.464;13.590;2022-10-13T09:52:15;15.07;72.55
71627;DHT22;59475;52.464;13.590;2022-10-13T09:54:47;15.15;72.79
71627;DHT22;59475;52.464;13.590;2022-10-13T09:57:26;15.18;72.15
71627;DHT22;59475;52.464;13.590;2022-10-13T10:02:37;15.27;71.98
71627;DHT22;59475;52.464;13.590;2022-10-13T10:05:36;15.28;72.38
71627;DHT22;59475;52.464;13.590;2022-10-13T10:08:14;15.28;72.80
71627;DHT22;59475;52.464;13.590;2022-10-13T10:10:41;15.31;72.08
71627;DHT22;59475;52.464;13.590;2022-10-13T10:13:09;15.08;72.65
71627;DHT22;59475;52.464;13.590;2022-10-13T10:15:56;15.06;73.12
71627;DHT22;59475;52.464;13.590;2022-10-13T10:22:34;15.10;73.28
71627;DHT22;59475;52.464;13.590;2022-10-13T10:28:07;15.49;73.20
71627;DHT22;59475;52.464;13.590;2022-10-13T10:30:43;15.66;71.92
71627;DHT22;59475;52.464;13.590;2022-10-13T10:33:26;15.65;72.35
71627;DHT22;59475;52.464;13.590;2022-10-13T10:36:14;15.83;71.54
71627;DHT22;59475;52.464;13.590;2022-10-13T10:38:51;15.86;71.57
71627;DHT22;59475;52.464;13.590;2022-10-13T10:43:59;15.90;71.39
71627;DHT22;59475;52.464;13.590;2022-10-13T10:46:29;15.96;71.37
71627;DHT22;59475;52.464;13.590;2022-10-13T10:48:59;16.11;71.06
71627;DHT22;59475;52.464;13.590;2022-10-13T10:51:35;16.35;71.06
71627;DHT22;59475;52.464;13.590;2022-10-13T10:54:32;16.58;70.16
71627;DHT22;59475;52.464;13.590;2022-10-13T11:00:08;16.71;69.11
71627;DHT22;59475;52.464;13.590;2022-10-13T11:05:16;16.64;69.48
71627;DHT22;59475;52.464;13.590;2022-10-13T11:15:28;16.41;71.21
71627;DHT22;59475;52.464;13.590;2022-10-13T11:17:57;16.41;70.46
71627;DHT22;59475;52.464;13.590;2022-10-13T11:25:46;16.45;70.94
71627;DHT22;59475;52.464;13.590;2022-10-13T11:30:51;16.96;70.23
71627;DHT22;59475;52.464;13.590;2022-10-13T11:33:33;17.13;69.40
71627;DHT22;59475;52.464;13.590;2022-10-13T11:42:01;17.54;68.24
71627;DHT22;59475;52.464;13.590;2022-10-13T11:44:35;17.54;68.98
71627;DHT22;59475;52.464;13.590;2022-10-13T11:50:25;17.78;67.86
71627;DHT22;59475;52.464;13.590;2022-10-13T11:53:04;17.78;67.78
71627;DHT22;59475;52.464;13.590;2022-10-13T11:58:13;17.97;67.41
71627;DHT22;59475;52.464;13.590;2022-10-13T12:01:33;17.92;67.26
71627;DHT22;59475;52.464;13.590;2022-10-13T12:03:36;17.95;67.50
71627;DHT22;59475;52.464;13.590;2022-10-13T12:06:30;17.96;67.32
71627;DHT22;59475;52.464;13.590;2022-10-13T12:09:00;18.00;67.78
71627;DHT22;59475;52.464;13.590;2022-10-13T12:11:35;18.20;67.39
71627;DHT22;59475;52.464;13.590;2022-10-13T12:14:02;18.23;66.52
71627;DHT22;59475;52.464;13.590;2022-10-13T12:16:29;18.16;66.59
71627;DHT22;59475;52.464;13.590;2022-10-13T12:19:18;18.06;66.98
71627;DHT22;59475;52.464;13.590;2022-10-13T12:21:49;17.97;67.42
71627;DHT22;59475;52.464;13.590;2022-10-13T12:24:14;17.95;67.58
71627;DHT22;59475;52.464;13.590;2022-10-13T12:26:40;17.81;68.12
71627;DHT22;59475;52.464;13.590;2022-10-13T12:29:11;17.69;68.53
71627;DHT22;59475;52.464;13.590;2022-10-13T12:31:40;17.59;68.75
71627;DHT22;59475;52.464;13.590;2022-10-13T12:34:24;17.52;68.36
71627;DHT22;59475;52.464;13.590;2022-10-13T12:36:56;17.41;65.92
71627;DHT22;59475;52.464;13.590;2022-10-13T12:39:23;17.38;66.18
71627;DHT22;59475;52.464;13.590;2022-10-13T12:41:50;17.38;66.18
71627;DHT22;59475;52.464;13.590;2022-10-13T12:44:20;17.41;65.55
71627;DHT22;59475;52.464;13.590;2022-10-13T12:46:48;17.37;65.27
71627;DHT22;59475;52.464;13.590;2022-10-13T12:49:24;17.41;65.77
71627;DHT22;59475;52.464;13.590;2022-10-13T12:51:57;17.32;64.50
71627;DHT22;59475;52.464;13.590;2022-10-13T12:54:31;17.32;65.04
71627;DHT22;59475;52.464;13.590;2022-10-13T12:57:00;17.24;64.35
71627;DHT22;59475;52.464;13.590;2022-10-13T12:59:27;17.19;64.42
71627;DHT22;59475;52.464;13.590;2022-10-13T13:01:58;17.13;65.26
71627;DHT22;59475;52.464;13.590;2022-10-13T13:04:29;17.16;65.40
71627;DHT22;59475;52.464;13.590;2022-10-13T13:06:58;17.16;65.74
71627;DHT22;59475;52.464;13.590;2022-10-13T13:09:26;17.17;65.39
71627;DHT22;59475;52.464;13.590;2022-10-13T13:12:21;17.14;66.18
71627;DHT22;59475;52.464;13.590;2022-10-13T13:14:49;17.02;66.63
71627;DHT22;59475;52.464;13.590;2022-10-13T13:19:48;17.03;67.39
71627;DHT22;59475;52.464;13.590;2022-10-13T13:22:15;17.11;66.86
71627;DHT22;59475;52.464;13.590;2022-10-13T13:24:40;17.13;67.39
71627;DHT22;59475;52.464;13.590;2022-10-13T13:27:17;17.14;67.43
71627;DHT22;59475;52.464;13.590;2022-10-13T13:29:43;17.10;67.48
71627;DHT22;59475;52.464;13.590;2022-10-13T13:32:13;17.10;67.39
71627;DHT22;59475;52.464;13.590;2022-10-13T13:34:39;17.11;66.31
71627;DHT22;59475;52.464;13.590;2022-10-13T13:37:05;17.04;65.99
71627;DHT22;59475;52.464;13.590;2022-10-13T13:39:33;17.00;67.16
71627;DHT22;59475;52.464;13.590;2022-10-13T13:41:58;17.00;66.16
71627;DHT22;59475;52.464;13.590;2022-10-13T13:44:24;17.00;66.17
71627;DHT22;59475;52.464;13.590;2022-10-13T13:46:49;16.92;66.37
71627;DHT22;59475;52.464;13.590;2022-10-13T13:49:14;16.94;66.80
71627;DHT22;59475;52.464;13.590;2022-10-13T13:51:40;17.02;66.39
71627;DHT22;59475;52.464;13.590;2022-10-13T13:54:05;16.99;66.86
71627;DHT22;59475;52.464;13.590;2022-10-13T13:56:30;16.93;66.65
71627;DHT22;59475;52.464;13.590;2022-10-13T13:58:56;16.89;66.81
71627;DHT22;59475;52.464;13.590;2022-10-13T14:20:39;16.99;67.91
71627;DHT22;59475;52.464;13.590;2022-10-13T14:23:05;17.17;68.02
71627;DHT22;59475;52.464;13.590;2022-10-13T14:25:30;17.30;67.45
71627;DHT22;59475;52.464;13.590;2022-10-13T14:27:57;17.37;67.33
71627;DHT22;59475;52.464;13.590;2022-10-13T14:30:22;17.38;67.10
71627;DHT22;59475;52.464;13.590;2022-10-13T14:32:48;17.34;67.17
71627;DHT22;59475;52.464;13.590;2022-10-13T14:35:13;17.26;67.17
71627;DHT22;59475;52.464;13.590;2022-10-13T14:37:38;17.14;66.93
71627;DHT22;59475;52.464;13.590;2022-10-13T14:40:04;17.03;67.31
71627;DHT22;59475;52.464;13.590;2022-10-13T14:42:29;16.93;68.48
71627;DHT22;59475;52.464;13.590;2022-10-13T14:44:55;16.83;68.74
71627;DHT22;59475;52.464;13.590;2022-10-13T14:47:20;16.72;68.37
71627;DHT22;59475;52.464;13.590;2022-10-13T14:49:45;16.64;68.20
71627;DHT22;59475;52.464;13.590;2022-10-13T14:52:11;16.55;68.13
71627;DHT22;59475;52.464;13.590;2022-10-13T14:54:36;16.49;68.53
71627;DHT22;59475;52.464;13.590;2022-10-13T14:57:01;16.45;68.49
71627;DHT22;59475;52.464;13.590;2022-10-13T14:59:30;16.41;69.31
71627;DHT22;59475;52.464;13.590;2022-10-13T15:01:55;16.31;69.49
71627;DHT22;59475;52.464;13.590;2022-10-13T15:04:20;16.24;69.80
71627;DHT22;59475;52.464;13.590;2022-10-13T15:06:46;16.25;70.14
71627;DHT22;59475;52.464;13.590;2022-10-13T15:09:11;16.25;68.69
71627;DHT22;59475;52.464;13.590;2022-10-13T15:11:37;16.18;69.35
71627;DHT22;59475;52.464;13.590;2022-10-13T15:14:02;16.20;69.21
71627;DHT22;59475;52.464;13.590;2022-10-13T15:16:29;16.16;69.69
71627;DHT22;59475;52.464;13.590;2022-10-13T15:18:57;16.10;69.39
71627;DHT22;59475;52.464;13.590;2022-10-13T15:21:23;16.07;69.13
71627;DHT22;59475;52.464;13.590;2022-10-13T15:23:48;16.03;69.84
71627;DHT22;59475;52.464;13.590;2022-10-13T15:26:15;15.94;71.25
71627;DHT22;59475;52.464;13.590;2022-10-13T15:28:48;15.86;71.51
71627;DHT22;59475;52.464;13.590;2022-10-13T15:31:15;15.79;71.89
71627;DHT22;59475;52.464;13.590;2022-10-13T15:33:45;15.67;72.69
71627;DHT22;59475;52.464;13.590;2022-10-13T15:36:11;15.48;72.20
71627;DHT22;59475;52.464;13.590;2022-10-13T15:38:36;15.35;72.76
71627;DHT22;59475;52.464;13.590;2022-10-13T15:41:03;15.21;73.24
71627;DHT22;59475;52.464;13.590;2022-10-13T15:43:29;15.10;73.38
71627;DHT22;59475;52.464;13.590;2022-10-13T15:45:59;14.97;73.74
71627;DHT22;59475;52.464;13.590;2022-10-13T15:48:26;14.84;74.34
71627;DHT22;59475;52.464;13.590;2022-10-13T15:50:52;14.73;74.74
71627;DHT22;59475;52.464;13.590;2022-10-13T15:53:18;14.59;75.16
71627;DHT22;59475;52.464;13.590;2022-10-13T15:55:44;14.48;75.45
71627;DHT22;59475;52.464;13.590;2022-10-13T15:58:10;14.33;75.90
71627;DHT22;59475;52.464;13.590;2022-10-13T16:00:35;14.24;76.26
71627;DHT22;59475;52.464;13.590;2022-10-13T16:03:02;14.11;76.97
71627;DHT22;59475;52.464;13.590;2022-10-13T16:05:29;13.97;77.63
71627;DHT22;59475;52.464;13.590;2022-10-13T16:07:54;13.87;78.16
71627;DHT22;59475;52.464;13.590;2022-10-13T16:10:19;13.74;78.79
71627;DHT22;59475;52.464;13.590;2022-10-13T16:12:45;13.65;79.02
71627;DHT22;59475;52.464;13.590;2022-10-13T16:15:10;13.52;81.07
71627;DHT22;59475;52.464;13.590;2022-10-13T16:17:35;13.40;81.11
71627;DHT22;59475;52.464;13.590;2022-10-13T16:20:02;13.26;81.92
71627;DHT22;59475;52.464;13.590;2022-10-13T16:22:28;13.22;82.27
71627;DHT22;59475;52.464;13.590;2022-10-13T16:24:53;13.09;81.81
71627;DHT22;59475;52.464;13.590;2022-10-13T16:27:18;13.02;81.65
71627;DHT22;59475;52.464;13.590;2022-10-13T16:29:44;12.97;81.65
71627;DHT22;59475;52.464;13.590;2022-10-13T16:32:09;12.88;81.93
71627;DHT22;59475;52.464;13.590;2022-10-13T16:34:35;12.80;83.18
71627;DHT22;59475;52.464;13.590;2022-10-13T16:37:00;12.71;84.22
71627;DHT22;59475;52.464;13.590;2022-10-13T16:39:25;12.54;85.01
71627;DHT22;59475;52.464;13.590;2022-10-13T16:41:52;12.43;85.51
71627;DHT22;59475;52.464;13.590;2022-10-13T16:44:17;12.32;85.93
71627;DHT22;59475;52.464;13.590;2022-10-13T16:46:43;12.21;86.22
71627;DHT22;59475;52.464;13.590;2022-10-13T16:49:09;12.14;85.42
71627;DHT22;59475;52.464;13.590;2022-10-13T16:51:35;12.09;85.11
71627;DHT22;59475;52.464;13.590;2022-10-13T16:54:00;11.98;86.15
71627;DHT22;59475;52.464;13.590;2022-10-13T16:56:27;11.91;86.61
71627;DHT22;59475;52.464;13.590;2022-10-13T16:58:58;11.80;86.58
71627;DHT22;59475;52.464;13.590;2022-10-13T17:01:24;11.71;86.09